sensor_id;sensor_type;location;lat;lon;timestamp;temperature;humidity
43842;DHT22;29495;49.970;20.842;2022-08-05T00:00:36;16.90;99.90
43842;DHT22;29495;49.970;20.842;2022-08-05T00:03:02;16.90;99.90
43842;DHT22;29495;49.970;20.842;2022-08-05T00:05:28;16.80;99.90
43842;DHT22;29495;49.970;20.842;2022-08-05T00:07:54;16.60;99.90
43842;DHT22;29495;49.970;20.842;2022-08-05T00:10:19;16.60;99.90
43842;DHT22;29495;49.970;20.842;2022-08-05T00:12:47;16.70;99.90
43842;DHT22;29495;49.970;20.842;2022-08-05T00:15:13;16.80;99.90
43842;DHT22;29495;49.970;20.842;2022-08-05T00:17:39;16.60;99.90
43842;DHT22;29495;49.970;20.842;2022-08-05T00:20:05;16.50;99.90
43842;DHT22;29495;49.970;20.842;2022-08-05T00:22:31;16.60;99.90
43842;DHT22;29495;49.970;20.842;2022-08-05T00:24:57;16.80;99.90
43842;DHT22;29495;49.970;20.842;2022-08-05T00:27:23;16.60;99.90
43842;DHT22;29495;49.970;20.842;2022-08-05T00:29:49;16.40;99.90
43842;DHT22;29495;49.970;20.842;2022-08-05T00:32:14;16.40;99.90
43842;DHT22;29495;49.970;20.842;2022-08-05T00:34:42;16.50;99.90
43842;DHT22;29495;49.970;20.842;2022-08-05T00:37:08;16.30;99.90
43842;DHT22;29495;49.970;20.842;2022-08-05T00:39:34;16.50;99.90
43842;DHT22;29495;49.970;20.842;2022-08-05T00:42:00;16.40;99.90
43842;DHT22;29495;49.970;20.842;2022-08-05T00:44:26;16.30;99.90
43842;DHT22;29495;49.970;20.842;2022-08-05T00:46:52;16.40;99.90
43842;DHT22;29495;49.970;20.842;2022-08-05T00:49:18;16.30;99.90
43842;DHT22;29495;49.970;20.842;2022-08-05T00:51:45;16.30;99.90
43842;DHT22;29495;49.970;20.842;2022-08-05T00:54:12;16.40;99.90
43842;DHT22;29495;49.970;20.842;2022-08-05T00:56:38;16.50;99.90
43842;DHT22;29495;49.970;20.842;2022-08-05T00:59:04;16.50;99.90
43842;DHT22;29495;49.970;20.842;2022-08-05T01:01:30;16.40;99.90
43842;DHT22;29495;49.970;20.842;2022-08-05T01:03:56;16.30;99.90
43842;DHT22;29495;49.970;20.842;2022-08-05T01:06:22;16.20;99.90
43842;DHT22;29495;49.970;20.842;2022-08-05T01:08:48;16.20;99.90
43842;DHT22;29495;49.970;20.842;2022-08-05T01:11:20;16.20;99.90
43842;DHT22;29495;49.970;20.842;2022-08-05T01:16:35;16.30;99.90
43842;DHT22;29495;49.970;20.842;2022-08-05T01:19:17;16.20;99.90
43842;DHT22;29495;49.970;20.842;2022-08-05T01:22:02;16.20;99.90
43842;DHT22;29495;49.970;20.842;2022-08-05T01:30:28;16.20;99.90
43842;DHT22;29495;49.970;20.842;2022-08-05T01:32:58;16.20;99.90
43842;DHT22;29495;49.970;20.842;2022-08-05T01:35:26;16.30;99.90
43842;DHT22;29495;49.970;20.842;2022-08-05T01:37:54;16.30;99.90
43842;DHT22;29495;49.970;20.842;2022-08-05T01:40:25;16.20;99.90
43842;DHT22;29495;49.970;20.842;2022-08-05T01:42:54;16.30;99.90
43842;DHT22;29495;49.970;20.842;2022-08-05T01:45:22;16.20;99.90
43842;DHT22;29495;49.970;20.842;2022-08-05T01:47:50;16.20;99.90
43842;DHT22;29495;49.970;20.842;2022-08-05T01:50:36;16.10;99.90
43842;DHT22;29495;49.970;20.842;2022-08-05T01:53:10;16.30;99.90
43842;DHT22;29495;49.970;20.842;2022-08-05T01:55:37;16.10;99.90
43842;DHT22;29495;49.970;20.842;2022-08-05T01:58:06;16.10;99.90
43842;DHT22;29495;49.970;20.842;2022-08-05T02:00:36;16.20;99.90
43842;DHT22;29495;49.970;20.842;2022-08-05T02:03:11;16.20;99.90
43842;DHT22;29495;49.970;20.842;2022-08-05T02:05:39;16.30;99.90
43842;DHT22;29495;49.970;20.842;2022-08-05T02:08:06;16.10;99.90
43842;DHT22;29495;49.970;20.842;2022-08-05T02:10:37;16.20;99.90
43842;DHT22;29495;49.970;20.842;2022-08-05T02:15:48;15.90;99.90
43842;DHT22;29495;49.970;20.842;2022-08-05T02:18:47;15.90;99.90
43842;DHT22;29495;49.970;20.842;2022-08-05T02:21:16;15.90;99.90
43842;DHT22;29495;49.970;20.842;2022-08-05T02:23:45;15.90;99.90
43842;DHT22;29495;49.970;20.842;2022-08-05T02:26:21;15.80;99.90
43842;DHT22;29495;49.970;20.842;2022-08-05T02:28:49;15.80;99.90
43842;DHT22;29495;49.970;20.842;2022-08-05T02:31:22;15.70;99.90
43842;DHT22;29495;49.970;20.842;2022-08-05T02:33:58;15.80;99.90
43842;DHT22;29495;49.970;20.842;2022-08-05T02:36:26;15.90;99.90
43842;DHT22;29495;49.970;20.842;2022-08-05T02:38:54;15.90;99.90
43842;DHT22;29495;49.970;20.842;2022-08-05T02:41:23;16.00;99.90
43842;DHT22;29495;49.970;20.842;2022-08-05T02:43:51;15.90;99.90
43842;DHT22;29495;49.970;20.842;2022-08-05T02:46:19;15.90;99.90
43842;DHT22;29495;49.970;20.842;2022-08-05T02:48:46;15.90;99.90
43842;DHT22;29495;49.970;20.842;2022-08-05T02:51:14;15.90;99.90
43842;DHT22;29495;49.970;20.842;2022-08-05T02:53:41;15.80;99.90
43842;DHT22;29495;49.970;20.842;2022-08-05T02:56:09;15.70;99.90
43842;DHT22;29495;49.970;20.842;2022-08-05T02:58:38;15.70;99.90
43842;DHT22;29495;49.970;20.842;2022-08-05T03:01:05;15.70;99.90
43842;DHT22;29495;49.970;20.842;2022-08-05T03:03:32;15.50;99.90
43842;DHT22;29495;49.970;20.842;2022-08-05T03:06:00;15.30;99.90
43842;DHT22;29495;49.970;20.842;2022-08-05T03:08:27;15.40;99.90
43842;DHT22;29495;49.970;20.842;2022-08-05T03:10:54;15.50;99.90
43842;DHT22;29495;49.970;20.842;2022-08-05T03:13:20;15.50;99.90
43842;DHT22;29495;49.970;20.842;2022-08-05T03:15:46;15.50;99.90
43842;DHT22;29495;49.970;20.842;2022-08-05T03:18:13;15.40;99.90
43842;DHT22;29495;49.970;20.842;2022-08-05T03:20:39;15.50;99.90
43842;DHT22;29495;49.970;20.842;2022-08-05T03:23:08;15.40;99.90
43842;DHT22;29495;49.970;20.842;2022-08-05T03:25:35;15.40;99.90
43842;DHT22;29495;49.970;20.842;2022-08-05T03:28:03;15.40;99.90
43842;DHT22;29495;49.970;20.842;2022-08-05T03:30:30;15.40;99.90
43842;DHT22;29495;49.970;20.842;2022-08-05T03:32:58;15.40;99.90
43842;DHT22;29495;49.970;20.842;2022-08-05T03:35:28;15.40;99.90
43842;DHT22;29495;49.970;20.842;2022-08-05T03:37:56;15.40;99.90
43842;DHT22;29495;49.970;20.842;2022-08-05T03:40:23;15.50;99.90
43842;DHT22;29495;49.970;20.842;2022-08-05T03:42:48;15.60;99.90
43842;DHT22;29495;49.970;20.842;2022-08-05T03:45:14;15.50;99.90
43842;DHT22;29495;49.970;20.842;2022-08-05T03:47:40;15.60;99.90
43842;DHT22;29495;49.970;20.842;2022-08-05T03:50:06;15.60;99.90
43842;DHT22;29495;49.970;20.842;2022-08-05T03:52:40;15.60;99.90
43842;DHT22;29495;49.970;20.842;2022-08-05T03:55:10;15.60;99.90
43842;DHT22;29495;49.970;20.842;2022-08-05T03:57:40;15.70;99.90
43842;DHT22;29495;49.970;20.842;2022-08-05T04:00:12;15.70;99.90
43842;DHT22;29495;49.970;20.842;2022-08-05T04:02:40;15.70;99.90
43842;DHT22;29495;49.970;20.842;2022-08-05T04:05:08;15.80;99.90
43842;DHT22;29495;49.970;20.842;2022-08-05T04:07:37;15.80;99.90
43842;DHT22;29495;49.970;20.842;2022-08-05T04:10:04;15.70;99.90
43842;DHT22;29495;49.970;20.842;2022-08-05T04:12:30;15.70;99.90
43842;DHT22;29495;49.970;20.842;2022-08-05T04:14:58;15.90;99.90
43842;DHT22;29495;49.970;20.842;2022-08-05T04:17:24;16.00;99.90
43842;DHT22;29495;49.970;20.842;2022-08-05T04:19:50;16.10;99.90
43842;DHT22;29495;49.970;20.842;2022-08-05T04:22:16;16.10;99.90
43842;DHT22;29495;49.970;20.842;2022-08-05T04:24:43;16.10;99.90
43842;DHT22;29495;49.970;20.842;2022-08-05T04:27:10;16.20;99.90
43842;DHT22;29495;49.970;20.842;2022-08-05T04:29:37;16.30;99.90
43842;DHT22;29495;49.970;20.842;2022-08-05T04:32:03;16.40;99.90
43842;DHT22;29495;49.970;20.842;2022-08-05T04:34:29;16.60;99.90
43842;DHT22;29495;49.970;20.842;2022-08-05T04:36:55;16.80;99.90
43842;DHT22;29495;49.970;20.842;2022-08-05T04:39:20;17.00;99.90
43842;DHT22;29495;49.970;20.842;2022-08-05T04:41:47;17.30;99.90
43842;DHT22;29495;49.970;20.842;2022-08-05T04:44:13;17.50;99.90
43842;DHT22;29495;49.970;20.842;2022-08-05T04:46:39;17.70;99.90
43842;DHT22;29495;49.970;20.842;2022-08-05T04:49:08;17.80;99.90
43842;DHT22;29495;49.970;20.842;2022-08-05T04:51:33;18.00;99.90
43842;DHT22;29495;49.970;20.842;2022-08-05T04:53:59;18.10;99.90
43842;DHT22;29495;49.970;20.842;2022-08-05T04:56:25;18.30;99.90
43842;DHT22;29495;49.970;20.842;2022-08-05T04:58:51;18.50;99.90
43842;DHT22;29495;49.970;20.842;2022-08-05T05:01:17;18.70;99.90
43842;DHT22;29495;49.970;20.842;2022-08-05T05:03:43;18.90;99.90
43842;DHT22;29495;49.970;20.842;2022-08-05T05:06:10;19.00;99.90
43842;DHT22;29495;49.970;20.842;2022-08-05T05:08:37;19.90;99.90
43842;DHT22;29495;49.970;20.842;2022-08-05T05:11:04;21.50;99.90
43842;DHT22;29495;49.970;20.842;2022-08-05T05:13:30;22.90;99.90
43842;DHT22;29495;49.970;20.842;2022-08-05T05:15:57;24.30;99.90
43842;DHT22;29495;49.970;20.842;2022-08-05T05:18:23;25.30;99.90
43842;DHT22;29495;49.970;20.842;2022-08-05T05:20:49;26.30;99.90
43842;DHT22;29495;49.970;20.842;2022-08-05T05:23:15;27.10;96.90
43842;DHT22;29495;49.970;20.842;2022-08-05T05:25:42;28.10;95.00
43842;DHT22;29495;49.970;20.842;2022-08-05T05:28:10;28.70;89.90
43842;DHT22;29495;49.970;20.842;2022-08-05T05:30:38;29.30;83.80
43842;DHT22;29495;49.970;20.842;2022-08-05T05:33:05;29.40;80.90
43842;DHT22;29495;49.970;20.842;2022-08-05T05:35:32;30.10;79.90
43842;DHT22;29495;49.970;20.842;2022-08-05T05:37:59;31.00;75.20
43842;DHT22;29495;49.970;20.842;2022-08-05T05:40:27;30.90;70.10
43842;DHT22;29495;49.970;20.842;2022-08-05T05:42:53;30.90;70.80
43842;DHT22;29495;49.970;20.842;2022-08-05T05:45:20;31.20;66.90
43842;DHT22;29495;49.970;20.842;2022-08-05T05:47:46;31.90;67.50
43842;DHT22;29495;49.970;20.842;2022-08-05T05:50:16;31.70;63.70
43842;DHT22;29495;49.970;20.842;2022-08-05T05:52:43;31.80;61.70
43842;DHT22;29495;49.970;20.842;2022-08-05T05:55:11;32.50;62.60
43842;DHT22;29495;49.970;20.842;2022-08-05T05:57:39;32.70;62.80
43842;DHT22;29495;49.970;20.842;2022-08-05T06:00:07;33.20;58.30
43842;DHT22;29495;49.970;20.842;2022-08-05T06:02:38;34.00;56.60
43842;DHT22;29495;49.970;20.842;2022-08-05T06:05:06;34.10;56.70
43842;DHT22;29495;49.970;20.842;2022-08-05T06:07:32;34.10;55.30
43842;DHT22;29495;49.970;20.842;2022-08-05T06:09:58;33.90;55.20
43842;DHT22;29495;49.970;20.842;2022-08-05T06:12:24;34.00;55.60
43842;DHT22;29495;49.970;20.842;2022-08-05T06:14:49;33.50;54.40
43842;DHT22;29495;49.970;20.842;2022-08-05T06:17:15;33.50;55.40
43842;DHT22;29495;49.970;20.842;2022-08-05T06:19:41;33.40;55.10
43842;DHT22;29495;49.970;20.842;2022-08-05T06:22:07;34.90;55.40
43842;DHT22;29495;49.970;20.842;2022-08-05T06:24:34;35.60;54.70
43842;DHT22;29495;49.970;20.842;2022-08-05T06:27:01;35.60;52.40
43842;DHT22;29495;49.970;20.842;2022-08-05T06:29:27;35.90;52.50
43842;DHT22;29495;49.970;20.842;2022-08-05T06:31:53;36.30;51.30
43842;DHT22;29495;49.970;20.842;2022-08-05T06:34:20;37.00;50.50
43842;DHT22;29495;49.970;20.842;2022-08-05T06:36:46;37.30;52.00
43842;DHT22;29495;49.970;20.842;2022-08-05T06:39:11;36.30;51.30
43842;DHT22;29495;49.970;20.842;2022-08-05T06:41:37;36.50;50.40
43842;DHT22;29495;49.970;20.842;2022-08-05T06:44:03;37.80;49.40
43842;DHT22;29495;49.970;20.842;2022-08-05T06:46:29;37.80;48.40
43842;DHT22;29495;49.970;20.842;2022-08-05T06:48:55;37.30;47.50
43842;DHT22;29495;49.970;20.842;2022-08-05T06:51:21;38.20;49.30
43842;DHT22;29495;49.970;20.842;2022-08-05T06:53:47;38.50;48.10
43842;DHT22;29495;49.970;20.842;2022-08-05T06:56:13;38.40;47.00
43842;DHT22;29495;49.970;20.842;2022-08-05T06:58:39;37.50;49.60
43842;DHT22;29495;49.970;20.842;2022-08-05T07:01:05;36.80;49.40
43842;DHT22;29495;49.970;20.842;2022-08-05T07:03:31;36.30;48.50
43842;DHT22;29495;49.970;20.842;2022-08-05T07:05:57;36.90;49.90
43842;DHT22;29495;49.970;20.842;2022-08-05T07:08:23;37.70;48.60
43842;DHT22;29495;49.970;20.842;2022-08-05T07:10:50;37.50;47.90
43842;DHT22;29495;49.970;20.842;2022-08-05T07:13:16;39.00;48.10
43842;DHT22;29495;49.970;20.842;2022-08-05T07:16:01;38.30;47.70
43842;DHT22;29495;49.970;20.842;2022-08-05T07:18:45;37.60;47.90
43842;DHT22;29495;49.970;20.842;2022-08-05T07:21:11;37.60;48.00
43842;DHT22;29495;49.970;20.842;2022-08-05T07:23:37;37.40;48.10
43842;DHT22;29495;49.970;20.842;2022-08-05T07:26:03;37.00;48.00
43842;DHT22;29495;49.970;20.842;2022-08-05T07:28:29;37.60;48.70
43842;DHT22;29495;49.970;20.842;2022-08-05T07:30:55;37.00;48.90
43842;DHT22;29495;49.970;20.842;2022-08-05T07:33:21;37.50;49.10
43842;DHT22;29495;49.970;20.842;2022-08-05T07:35:47;38.10;51.00
43842;DHT22;29495;49.970;20.842;2022-08-05T07:38:14;38.00;48.60
43842;DHT22;29495;49.970;20.842;2022-08-05T07:40:40;37.50;47.70
43842;DHT22;29495;49.970;20.842;2022-08-05T07:43:06;36.80;47.50
43842;DHT22;29495;49.970;20.842;2022-08-05T07:45:32;36.00;49.30
43842;DHT22;29495;49.970;20.842;2022-08-05T07:47:58;34.80;50.60
43842;DHT22;29495;49.970;20.842;2022-08-05T07:50:24;34.80;53.50
43842;DHT22;29495;49.970;20.842;2022-08-05T07:52:50;34.00;52.40
43842;DHT22;29495;49.970;20.842;2022-08-05T07:55:16;33.80;56.30
43842;DHT22;29495;49.970;20.842;2022-08-05T07:57:42;33.50;54.40
43842;DHT22;29495;49.970;20.842;2022-08-05T08:00:08;33.00;56.50
43842;DHT22;29495;49.970;20.842;2022-08-05T08:02:37;33.10;54.80
43842;DHT22;29495;49.970;20.842;2022-08-05T08:05:03;32.60;57.40
43842;DHT22;29495;49.970;20.842;2022-08-05T08:07:29;32.20;57.60
43842;DHT22;29495;49.970;20.842;2022-08-05T08:09:55;32.00;57.80
43842;DHT22;29495;49.970;20.842;2022-08-05T08:12:22;31.80;58.30
43842;DHT22;29495;49.970;20.842;2022-08-05T08:14:48;31.60;58.90
43842;DHT22;29495;49.970;20.842;2022-08-05T08:17:15;31.60;58.30
43842;DHT22;29495;49.970;20.842;2022-08-05T08:19:41;31.60;58.80
43842;DHT22;29495;49.970;20.842;2022-08-05T08:22:07;31.80;59.90
43842;DHT22;29495;49.970;20.842;2022-08-05T08:24:34;32.00;58.30
43842;DHT22;29495;49.970;20.842;2022-08-05T08:27:00;31.70;60.60
43842;DHT22;29495;49.970;20.842;2022-08-05T08:29:26;31.80;63.60
43842;DHT22;29495;49.970;20.842;2022-08-05T08:31:53;32.00;62.50
43842;DHT22;29495;49.970;20.842;2022-08-05T08:34:21;31.50;60.70
43842;DHT22;29495;49.970;20.842;2022-08-05T08:36:47;31.90;61.80
43842;DHT22;29495;49.970;20.842;2022-08-05T08:39:13;31.70;59.70
43842;DHT22;29495;49.970;20.842;2022-08-05T08:41:50;32.20;60.30
43842;DHT22;29495;49.970;20.842;2022-08-05T08:44:19;32.10;59.80
43842;DHT22;29495;49.970;20.842;2022-08-05T08:46:46;31.90;58.80
43842;DHT22;29495;49.970;20.842;2022-08-05T08:49:14;32.40;58.20
43842;DHT22;29495;49.970;20.842;2022-08-05T08:51:41;32.10;60.60
43842;DHT22;29495;49.970;20.842;2022-08-05T08:54:09;31.60;59.80
43842;DHT22;29495;49.970;20.842;2022-08-05T08:56:38;31.40;60.40
43842;DHT22;29495;49.970;20.842;2022-08-05T08:59:04;31.70;60.60
43842;DHT22;29495;49.970;20.842;2022-08-05T09:01:30;31.80;59.30
43842;DHT22;29495;49.970;20.842;2022-08-05T09:03:56;31.70;63.50
43842;DHT22;29495;49.970;20.842;2022-08-05T09:06:25;31.50;61.40
43842;DHT22;29495;49.970;20.842;2022-08-05T09:08:51;31.40;59.50
43842;DHT22;29495;49.970;20.842;2022-08-05T09:11:17;31.60;62.00
43842;DHT22;29495;49.970;20.842;2022-08-05T09:13:43;31.20;59.10
43842;DHT22;29495;49.970;20.842;2022-08-05T09:16:09;31.40;62.90
43842;DHT22;29495;49.970;20.842;2022-08-05T09:18:36;31.80;60.00
43842;DHT22;29495;49.970;20.842;2022-08-05T09:21:03;31.50;59.30
43842;DHT22;29495;49.970;20.842;2022-08-05T09:23:29;31.40;61.80
43842;DHT22;29495;49.970;20.842;2022-08-05T09:26:11;31.20;60.30
43842;DHT22;29495;49.970;20.842;2022-08-05T09:28:38;31.50;59.00
43842;DHT22;29495;49.970;20.842;2022-08-05T09:31:10;31.70;60.50
43842;DHT22;29495;49.970;20.842;2022-08-05T09:33:51;32.00;62.90
43842;DHT22;29495;49.970;20.842;2022-08-05T09:36:17;32.00;60.30
43842;DHT22;29495;49.970;20.842;2022-08-05T09:39:01;32.20;59.90
43842;DHT22;29495;49.970;20.842;2022-08-05T09:41:28;32.60;59.60
43842;DHT22;29495;49.970;20.842;2022-08-05T09:43:54;32.70;59.90
43842;DHT22;29495;49.970;20.842;2022-08-05T09:48:52;32.30;60.80
43842;DHT22;29495;49.970;20.842;2022-08-05T09:51:31;32.40;57.70
43842;DHT22;29495;49.970;20.842;2022-08-05T09:53:58;32.70;58.90
43842;DHT22;29495;49.970;20.842;2022-08-05T09:56:30;32.60;58.70
43842;DHT22;29495;49.970;20.842;2022-08-05T09:59:06;32.60;59.20
43842;DHT22;29495;49.970;20.842;2022-08-05T10:01:33;33.00;62.10
43842;DHT22;29495;49.970;20.842;2022-08-05T10:04:11;33.00;56.90
43842;DHT22;29495;49.970;20.842;2022-08-05T10:06:39;33.20;56.80
43842;DHT22;29495;49.970;20.842;2022-08-05T10:09:14;33.30;58.80
43842;DHT22;29495;49.970;20.842;2022-08-05T10:11:41;32.60;58.20
43842;DHT22;29495;49.970;20.842;2022-08-05T10:14:21;32.30;58.90
43842;DHT22;29495;49.970;20.842;2022-08-05T10:16:49;32.60;61.90
43842;DHT22;29495;49.970;20.842;2022-08-05T10:19:15;33.10;60.00
43842;DHT22;29495;49.970;20.842;2022-08-05T10:21:41;32.90;57.10
43842;DHT22;29495;49.970;20.842;2022-08-05T10:24:08;32.60;57.50
43842;DHT22;29495;49.970;20.842;2022-08-05T10:26:41;32.30;57.60
43842;DHT22;29495;49.970;20.842;2022-08-05T10:29:08;32.40;58.80
43842;DHT22;29495;49.970;20.842;2022-08-05T10:31:34;32.80;66.50
43842;DHT22;29495;49.970;20.842;2022-08-05T10:34:01;33.00;60.50
43842;DHT22;29495;49.970;20.842;2022-08-05T10:36:28;33.20;55.20
43842;DHT22;29495;49.970;20.842;2022-08-05T10:38:59;33.30;55.00
43842;DHT22;29495;49.970;20.842;2022-08-05T10:41:33;33.30;55.40
43842;DHT22;29495;49.970;20.842;2022-08-05T10:44:10;33.50;54.80
43842;DHT22;29495;49.970;20.842;2022-08-05T10:46:54;33.70;59.50
43842;DHT22;29495;49.970;20.842;2022-08-05T10:49:22;33.50;54.80
43842;DHT22;29495;49.970;20.842;2022-08-05T10:51:51;33.40;58.50
43842;DHT22;29495;49.970;20.842;2022-08-05T10:54:23;33.50;60.80
43842;DHT22;29495;49.970;20.842;2022-08-05T10:56:52;33.40;59.00
43842;DHT22;29495;49.970;20.842;2022-08-05T10:59:28;33.60;52.50
43842;DHT22;29495;49.970;20.842;2022-08-05T11:02:11;33.50;54.80
43842;DHT22;29495;49.970;20.842;2022-08-05T11:04:44;33.50;56.10
43842;DHT22;29495;49.970;20.842;2022-08-05T11:07:11;33.60;52.50
43842;DHT22;29495;49.970;20.842;2022-08-05T11:09:52;33.70;50.50
43842;DHT22;29495;49.970;20.842;2022-08-05T11:15:06;34.10;53.20
43842;DHT22;29495;49.970;20.842;2022-08-05T11:17:36;34.10;53.60
43842;DHT22;29495;49.970;20.842;2022-08-05T11:20:08;33.90;53.50
43842;DHT22;29495;49.970;20.842;2022-08-05T11:22:53;34.10;52.10
43842;DHT22;29495;49.970;20.842;2022-08-05T11:25:37;33.80;58.20
43842;DHT22;29495;49.970;20.842;2022-08-05T11:33:29;33.80;54.50
43842;DHT22;29495;49.970;20.842;2022-08-05T11:35:57;33.80;53.20
43842;DHT22;29495;49.970;20.842;2022-08-05T11:43:52;33.90;54.10
43842;DHT22;29495;49.970;20.842;2022-08-05T11:46:48;33.70;51.80
43842;DHT22;29495;49.970;20.842;2022-08-05T11:49:20;33.70;54.90
43842;DHT22;29495;49.970;20.842;2022-08-05T11:51:51;33.90;51.80
43842;DHT22;29495;49.970;20.842;2022-08-05T11:54:22;34.20;53.10
43842;DHT22;29495;49.970;20.842;2022-08-05T11:56:54;34.30;53.00
43842;DHT22;29495;49.970;20.842;2022-08-05T11:59:21;34.70;53.20
43842;DHT22;29495;49.970;20.842;2022-08-05T12:02:01;34.50;50.50
43842;DHT22;29495;49.970;20.842;2022-08-05T12:04:43;34.50;52.70
43842;DHT22;29495;49.970;20.842;2022-08-05T12:07:11;34.50;51.70
43842;DHT22;29495;49.970;20.842;2022-08-05T12:09:40;34.70;51.90
43842;DHT22;29495;49.970;20.842;2022-08-05T12:12:06;34.80;49.50
43842;DHT22;29495;49.970;20.842;2022-08-05T12:14:37;34.70;50.20
43842;DHT22;29495;49.970;20.842;2022-08-05T12:17:11;34.80;51.30
43842;DHT22;29495;49.970;20.842;2022-08-05T12:22:13;34.70;47.30
43842;DHT22;29495;49.970;20.842;2022-08-05T12:24:41;34.70;47.00
43842;DHT22;29495;49.970;20.842;2022-08-05T12:27:08;34.70;48.10
43842;DHT22;29495;49.970;20.842;2022-08-05T12:29:34;35.00;49.80
43842;DHT22;29495;49.970;20.842;2022-08-05T12:32:00;34.80;47.90
43842;DHT22;29495;49.970;20.842;2022-08-05T12:34:29;35.00;48.30
43842;DHT22;29495;49.970;20.842;2022-08-05T12:37:15;34.90;48.70
43842;DHT22;29495;49.970;20.842;2022-08-05T12:39:42;35.00;48.80
43842;DHT22;29495;49.970;20.842;2022-08-05T12:42:12;35.10;48.20
43842;DHT22;29495;49.970;20.842;2022-08-05T12:44:39;35.10;43.80
43842;DHT22;29495;49.970;20.842;2022-08-05T12:47:05;35.30;47.70
43842;DHT22;29495;49.970;20.842;2022-08-05T12:49:45;35.20;45.40
43842;DHT22;29495;49.970;20.842;2022-08-05T12:52:16;35.10;40.70
43842;DHT22;29495;49.970;20.842;2022-08-05T12:54:47;35.10;45.10
43842;DHT22;29495;49.970;20.842;2022-08-05T12:57:14;35.00;46.20
43842;DHT22;29495;49.970;20.842;2022-08-05T12:59:48;35.20;45.60
43842;DHT22;29495;49.970;20.842;2022-08-05T13:02:26;35.50;45.80
43842;DHT22;29495;49.970;20.842;2022-08-05T13:04:53;35.30;43.40
43842;DHT22;29495;49.970;20.842;2022-08-05T13:07:24;35.30;45.20
43842;DHT22;29495;49.970;20.842;2022-08-05T13:09:52;35.20;43.40
43842;DHT22;29495;49.970;20.842;2022-08-05T13:12:21;35.40;45.00
43842;DHT22;29495;49.970;20.842;2022-08-05T13:14:49;35.40;45.90
43842;DHT22;29495;49.970;20.842;2022-08-05T13:22:35;35.20;43.80
43842;DHT22;29495;49.970;20.842;2022-08-05T13:25:08;35.30;48.20
43842;DHT22;29495;49.970;20.842;2022-08-05T13:27:37;35.10;45.00
43842;DHT22;29495;49.970;20.842;2022-08-05T13:30:05;35.20;46.80
43842;DHT22;29495;49.970;20.842;2022-08-05T13:32:32;35.50;47.80
43842;DHT22;29495;49.970;20.842;2022-08-05T13:34:58;35.30;44.60
43842;DHT22;29495;49.970;20.842;2022-08-05T13:37:24;35.30;46.70
43842;DHT22;29495;49.970;20.842;2022-08-05T13:39:51;35.30;44.30
43842;DHT22;29495;49.970;20.842;2022-08-05T13:42:21;35.40;44.90
43842;DHT22;29495;49.970;20.842;2022-08-05T13:44:51;35.60;45.00
43842;DHT22;29495;49.970;20.842;2022-08-05T13:47:17;35.50;44.80
43842;DHT22;29495;49.970;20.842;2022-08-05T13:49:43;35.40;43.50
43842;DHT22;29495;49.970;20.842;2022-08-05T13:52:20;35.40;44.90
43842;DHT22;29495;49.970;20.842;2022-08-05T13:54:47;35.40;44.50
43842;DHT22;29495;49.970;20.842;2022-08-05T13:57:13;35.10;45.00
43842;DHT22;29495;49.970;20.842;2022-08-05T13:59:40;35.10;46.60
43842;DHT22;29495;49.970;20.842;2022-08-05T14:02:09;35.10;45.20
43842;DHT22;29495;49.970;20.842;2022-08-05T14:04:40;35.30;47.90
43842;DHT22;29495;49.970;20.842;2022-08-05T14:07:34;35.20;47.80
43842;DHT22;29495;49.970;20.842;2022-08-05T14:10:01;35.20;44.90
43842;DHT22;29495;49.970;20.842;2022-08-05T14:12:27;35.00;44.70
43842;DHT22;29495;49.970;20.842;2022-08-05T14:14:53;35.00;47.00
43842;DHT22;29495;49.970;20.842;2022-08-05T14:17:19;35.00;45.30
43842;DHT22;29495;49.970;20.842;2022-08-05T14:19:47;34.80;46.00
43842;DHT22;29495;49.970;20.842;2022-08-05T14:22:14;34.50;47.00
43842;DHT22;29495;49.970;20.842;2022-08-05T14:24:40;34.50;46.50
43842;DHT22;29495;49.970;20.842;2022-08-05T14:27:06;34.50;48.80
43842;DHT22;29495;49.970;20.842;2022-08-05T14:29:32;34.40;48.20
43842;DHT22;29495;49.970;20.842;2022-08-05T14:32:00;34.50;45.90
43842;DHT22;29495;49.970;20.842;2022-08-05T14:34:26;34.50;46.90
43842;DHT22;29495;49.970;20.842;2022-08-05T14:36:52;34.30;49.10
43842;DHT22;29495;49.970;20.842;2022-08-05T14:39:18;34.60;45.30
43842;DHT22;29495;49.970;20.842;2022-08-05T14:41:44;34.90;48.50
43842;DHT22;29495;49.970;20.842;2022-08-05T14:44:10;34.90;46.80
43842;DHT22;29495;49.970;20.842;2022-08-05T14:46:36;35.10;45.90
43842;DHT22;29495;49.970;20.842;2022-08-05T14:49:04;34.70;43.70
43842;DHT22;29495;49.970;20.842;2022-08-05T14:51:30;34.80;48.00
43842;DHT22;29495;49.970;20.842;2022-08-05T14:53:57;34.80;45.00
43842;DHT22;29495;49.970;20.842;2022-08-05T14:56:22;35.00;47.50
43842;DHT22;29495;49.970;20.842;2022-08-05T14:58:48;35.00;46.80
43842;DHT22;29495;49.970;20.842;2022-08-05T15:01:17;35.00;46.30
43842;DHT22;29495;49.970;20.842;2022-08-05T15:03:44;35.00;45.30
43842;DHT22;29495;49.970;20.842;2022-08-05T15:06:11;34.90;46.80
43842;DHT22;29495;49.970;20.842;2022-08-05T15:08:37;34.90;45.30
43842;DHT22;29495;49.970;20.842;2022-08-05T15:11:03;34.90;43.90
43842;DHT22;29495;49.970;20.842;2022-08-05T15:13:29;34.80;44.10
43842;DHT22;29495;49.970;20.842;2022-08-05T15:15:55;34.70;43.30
43842;DHT22;29495;49.970;20.842;2022-08-05T15:18:21;34.70;44.70
43842;DHT22;29495;49.970;20.842;2022-08-05T15:20:46;34.60;44.10
43842;DHT22;29495;49.970;20.842;2022-08-05T15:23:12;34.50;45.60
43842;DHT22;29495;49.970;20.842;2022-08-05T15:25:39;34.50;46.50
43842;DHT22;29495;49.970;20.842;2022-08-05T15:28:05;34.50;45.20
43842;DHT22;29495;49.970;20.842;2022-08-05T15:30:32;34.60;49.60
43842;DHT22;29495;49.970;20.842;2022-08-05T15:33:00;34.40;47.30
43842;DHT22;29495;49.970;20.842;2022-08-05T15:35:26;34.20;47.10
43842;DHT22;29495;49.970;20.842;2022-08-05T15:37:53;34.20;48.50
43842;DHT22;29495;49.970;20.842;2022-08-05T15:40:19;34.20;46.30
43842;DHT22;29495;49.970;20.842;2022-08-05T15:42:45;34.20;46.30
43842;DHT22;29495;49.970;20.842;2022-08-05T15:45:11;34.20;47.70
43842;DHT22;29495;49.970;20.842;2022-08-05T15:47:39;34.10;47.20
43842;DHT22;29495;49.970;20.842;2022-08-05T15:50:06;34.00;48.60
43842;DHT22;29495;49.970;20.842;2022-08-05T15:52:32;34.00;48.80
43842;DHT22;29495;49.970;20.842;2022-08-05T15:54:59;33.90;49.40
43842;DHT22;29495;49.970;20.842;2022-08-05T15:57:25;33.80;50.80